Other Surface Observations
Issued by NWS Missoula, MT

Home | Current Version | Previous Version | Text Only | Print | Product List | Glossary On
Versions: 1 2 3 4 5 6 7 8 9 10 11 12 13 14 15 16 17 18 19 20 21 22 23 24 25 26 27 28 29 30 31 32 33 34 35 36 37 38 39 40 41 42 43 44 45 46 47 48 49 50
000
SXUS55 KMSO 262323
OSOMSO
MONTANA AWOS SUMMARY
NATIONAL WEATHER SERVICE MISSOULA MT
523 PM MDT THU MAY 26 2016

Montana AWOS Reports

TWIN BRIDGES|K7S1 262315Z AUTO 34006KT 40SM 16/04 A2993 RMK AO1 T01610039
ROUNDUP     |KRPX 262315Z AUTO VRB05KT 40SM 17/06 A2982 RMK AO1 T01720061




USA.gov is the U.S. government's official web portal to all federal, state and local government web resources and services.